Time;durP1;ratioP1;P1;durP2;ratioP2;P2;SDS_P1;SDS_P2;PMS_P1;PMS_P2;Temp;Humidity;BMP_temperature;BMP_pressure;BME280_temperature;BME280_humidity;BME280_pressure;Samples;Min_cycle;Max_cycle;Signal;HPM_P1;HPM_P2
2023/06/25 00:03:33;;;;;;;13.07;8.77;;;;;;;19.00;90.58;101222.89;5061286;56;1141227;-73
2023/06/25 00:08:38;;;;;;;12.37;8.78;;;;;;;19.00;90.86;101216.19;5124941;56;1140796;-78
2023/06/25 00:13:44;;;;;;;12.63;8.75;;;;;;;18.89;89.94;101217.30;5135752;56;1141123;-71
2023/06/25 00:18:49;;;;;;;9.77;7.67;;;;;;;18.59;89.50;101216.37;5128668;56;1140716;-72
2023/06/25 00:23:55;;;;;;;20.55;8.23;;;;;;;18.45;91.06;101216.37;5072400;56;1138931;-78
2023/06/25 00:29:01;;;;;;;9.73;7.83;;;;;;;18.53;92.57;101214.26;5078012;56;1140897;-77
2023/06/25 00:34:06;;;;;;;14.80;7.55;;;;;;;18.55;92.89;101210.44;5077081;56;1138879;-73
2023/06/25 00:39:12;;;;;;;14.75;7.20;;;;;;;18.59;92.84;101212.35;5047342;56;1141003;-74
2023/06/25 00:44:18;;;;;;;8.98;8.08;;;;;;;18.63;93.13;101208.88;4964865;57;1140918;-71
2023/06/25 00:49:23;;;;;;;11.85;7.08;;;;;;;18.66;93.68;101207.20;4964237;57;1138819;-76
2023/06/25 00:54:29;;;;;;;12.78;7.30;;;;;;;18.55;93.18;101202.40;5000697;57;1140951;-74
2023/06/25 00:59:42;;;;;;;9.10;7.30;;;;;;;18.49;93.83;101200.32;5044845;57;1141088;-75
2023/06/25 01:04:57;;;;;;;8.98;7.03;;;;;;;18.40;93.07;101202.59;5022211;57;1138846;-74
2023/06/25 01:10:02;;;;;;;7.62;6.85;;;;;;;18.01;92.00;101199.36;5000235;57;1138791;-76
2023/06/25 01:15:14;;;;;;;19.85;8.08;;;;;;;17.56;93.21;101199.29;5123505;56;1138790;-79
2023/06/25 01:20:16;;;;;;;12.68;7.30;;;;;;;17.23;94.44;101196.17;5078486;56;1140887;-76
2023/06/25 01:25:22;;;;;;;12.87;7.33;;;;;;;17.01;95.14;101196.98;5076293;56;1140619;-75
2023/06/25 01:30:31;;;;;;;8.90;7.17;;;;;;;16.78;93.59;101193.80;4972067;58;1141009;-74
2023/06/25 01:35:35;;;;;;;9.53;6.30;;;;;;;16.49;93.57;101195.97;4992220;58;1138788;-77
2023/06/25 01:40:41;;;;;;;7.78;6.12;;;;;;;16.31;94.53;101199.47;4968407;57;1139057;-78
2023/06/25 01:45:46;;;;;;;12.73;5.92;;;;;;;16.34;96.86;101185.36;4972252;57;1138857;-75
2023/06/25 01:50:52;;;;;;;12.00;6.58;;;;;;;16.43;96.31;101183.66;4988691;57;1140789;-68
2023/06/25 01:55:58;;;;;;;12.93;6.70;;;;;;;16.50;96.73;101176.76;4969974;58;1141181;-74
2023/06/25 02:01:04;;;;;;;9.00;5.70;;;;;;;16.52;96.99;101181.47;4992677;57;1141364;-73
2023/06/25 02:06:09;;;;;;;8.80;6.80;;;;;;;16.37;95.85;101182.39;5075849;57;1139128;-80
2023/06/25 02:11:15;;;;;;;14.37;6.40;;;;;;;16.22;94.89;101183.78;5055396;56;1139274;-76
2023/06/25 02:16:21;;;;;;;8.13;6.03;;;;;;;15.92;95.78;101180.72;5084011;56;1141060;-74
2023/06/25 02:21:26;;;;;;;8.63;6.23;;;;;;;15.73;96.68;101183.36;5159521;56;1138782;-77
2023/06/25 02:26:32;;;;;;;11.53;6.47;;;;;;;15.54;97.11;101185.44;5059012;56;1138647;-81
2023/06/25 02:31:38;;;;;;;5.78;5.28;;;;;;;15.51;98.56;101183.52;5027903;56;1140885;-74
2023/06/25 02:36:44;;;;;;;6.72;4.65;;;;;;;15.76;100.00;101183.06;5013199;57;1138918;-73
2023/06/25 02:41:50;;;;;;;7.63;5.23;;;;;;;15.73;98.18;101176.70;4972885;56;1140874;-74
2023/06/25 02:46:55;;;;;;;7.67;6.17;;;;;;;15.54;98.20;101173.92;4972512;57;1138829;-75
2023/06/25 02:52:01;;;;;;;16.37;5.60;;;;;;;15.46;99.54;101167.92;4990930;57;1138663;-74
2023/06/25 02:57:07;;;;;;;7.90;6.07;;;;;;;15.40;100.00;101171.14;4868519;58;1140856;-76
2023/06/25 03:02:12;;;;;;;9.20;7.33;;;;;;;15.36;100.00;101165.23;5066896;55;1140828;-79
2023/06/25 03:07:19;;;;;;;8.83;6.57;;;;;;;15.43;100.00;101167.69;5129716;56;1141183;-74
2023/06/25 03:12:25;;;;;;;13.00;6.00;;;;;;;15.48;100.00;101168.63;5110713;56;1140876;-72
2023/06/25 03:17:30;;;;;;;8.73;6.10;;;;;;;15.59;100.00;101169.89;5110829;56;1143159;-71
2023/06/25 03:22:38;;;;;;;9.23;6.35;;;;;;;15.62;100.00;101165.63;5149795;55;1146393;-71
2023/06/25 03:27:43;;;;;;;9.70;6.35;;;;;;;15.62;100.00;101156.30;5095341;56;1141019;-74
2023/06/25 03:32:49;;;;;;;11.35;6.58;;;;;;;15.65;100.00;101160.52;4995181;57;1141146;-70
2023/06/25 03:37:56;;;;;;;9.53;5.70;;;;;;;15.60;100.00;101162.25;5019250;57;1142973;-76
2023/06/25 03:43:01;;;;;;;9.27;5.70;;;;;;;15.52;100.00;101163.88;5087107;56;1140833;-68
2023/06/25 03:48:08;;;;;;;7.23;6.50;;;;;;;15.49;100.00;101159.66;5053332;57;1141057;-71
2023/06/25 03:53:14;;;;;;;12.18;6.35;;;;;;;15.51;100.00;101164.38;5060050;56;1141021;-69
2023/06/25 03:58:21;;;;;;;9.27;6.47;;;;;;;15.46;100.00;101159.92;5111655;56;1143299;-74
2023/06/25 04:03:27;;;;;;;8.97;5.80;;;;;;;15.44;100.00;101163.20;5071982;56;1140875;-73
2023/06/25 04:08:33;;;;;;;12.14;5.78;;;;;;;15.40;100.00;101162.66;5090730;56;1140945;-71
2023/06/25 04:13:38;;;;;;;9.20;5.67;;;;;;;15.42;100.00;101162.03;5076638;56;1142984;-72
2023/06/25 04:18:44;;;;;;;6.10;5.60;;;;;;;15.48;100.00;101155.30;5129239;56;1141098;-74
2023/06/25 04:23:50;;;;;;;6.90;5.50;;;;;;;15.60;100.00;101161.40;5114531;56;1140969;-71
2023/06/25 04:28:56;;;;;;;7.08;5.00;;;;;;;15.74;100.00;101158.34;5145573;56;1141003;-72
2023/06/25 04:34:03;;;;;;;4.93;4.27;;;;;;;15.85;100.00;101155.59;5113254;56;1140880;-77
2023/06/25 04:39:09;;;;;;;6.60;4.47;;;;;;;15.94;100.00;101158.75;5018065;57;1140997;-70
2023/06/25 04:44:15;;;;;;;4.83;4.33;;;;;;;15.99;100.00;101158.34;5046008;57;1140771;-66
2023/06/25 04:49:21;;;;;;;7.03;4.93;;;;;;;16.04;100.00;101157.45;5008706;57;1140960;-68
2023/06/25 04:54:27;;;;;;;4.30;3.87;;;;;;;16.09;100.00;101152.03;5022035;56;1140837;-70
2023/06/25 04:59:32;;;;;;;4.30;3.90;;;;;;;16.16;100.00;101151.00;5040425;56;1141370;-70
2023/06/25 05:04:38;;;;;;;6.10;4.65;;;;;;;16.33;100.00;101147.64;5061050;57;1141210;-68
2023/06/25 05:09:44;;;;;;;13.65;7.65;;;;;;;16.44;100.00;101143.48;4988187;56;1140895;-70
2023/06/25 05:14:50;;;;;;;5.08;4.58;;;;;;;16.54;100.00;101150.13;4958341;57;1142907;-68
2023/06/25 05:19:55;;;;;;;8.23;4.72;;;;;;;16.72;100.00;101148.95;4989890;57;1141045;-66
2023/06/25 05:25:01;;;;;;;5.53;4.63;;;;;;;16.85;100.00;101142.31;4962831;57;1140851;-67
2023/06/25 05:30:08;;;;;;;6.83;4.28;;;;;;;17.03;100.00;101137.06;5027099;56;1141059;-69
2023/06/25 05:35:14;;;;;;;6.07;4.40;;;;;;;17.20;100.00;101127.44;5092238;55;1141046;-67
2023/06/25 05:40:20;;;;;;;5.37;4.27;;;;;;;17.41;100.00;101128.06;5026520;56;1140797;-67
2023/06/25 05:45:25;;;;;;;5.97;4.20;;;;;;;17.65;100.00;101131.55;5043595;56;1140902;-65
2023/06/25 05:50:31;;;;;;;7.67;3.53;;;;;;;17.91;100.00;101141.02;5030816;56;1140812;-67
2023/06/25 05:55:37;;;;;;;4.37;3.97;;;;;;;18.16;100.00;101142.13;4987159;57;1140765;-77
2023/06/25 06:00:42;;;;;;;4.38;3.98;;;;;;;18.36;98.71;101144.97;5058383;56;1150250;-72
2023/06/25 06:05:48;;;;;;;4.03;3.63;;;;;;;18.51;98.31;101145.25;4917088;57;1138992;-80
2023/06/25 06:10:54;;;;;;;5.05;4.08;;;;;;;18.63;97.33;101148.09;5059502;56;1138873;-71
2023/06/25 06:16:00;;;;;;;6.53;4.50;;;;;;;18.81;97.67;101138.64;5114779;55;1138649;-77
2023/06/25 06:21:05;;;;;;;4.00;3.60;;;;;;;18.94;97.68;101129.19;5138397;55;1138906;-79
2023/06/25 06:26:11;;;;;;;4.53;4.15;;;;;;;19.21;97.43;101134.05;5129725;56;1138850;-76
2023/06/25 06:31:17;;;;;;;4.65;3.92;;;;;;;19.30;95.16;101130.39;5096134;55;1138973;-71
2023/06/25 06:36:22;;;;;;;4.08;3.60;;;;;;;19.42;95.21;101130.44;4978242;56;1138814;-72
2023/06/25 06:41:28;;;;;;;4.74;3.76;;;;;;;19.62;97.52;101124.34;5022501;56;1138874;-75
2023/06/25 06:46:34;;;;;;;5.40;4.20;;;;;;;19.85;95.89;101128.13;5044958;57;1138667;-72
2023/06/25 06:51:41;;;;;;;6.03;3.85;;;;;;;20.01;94.34;101119.26;5039973;57;1138719;-74
2023/06/25 06:56:46;;;;;;;7.70;3.42;;;;;;;20.11;93.84;101123.12;4952839;57;1138861;-79
2023/06/25 07:01:52;;;;;;;6.40;3.87;;;;;;;20.23;93.85;101120.44;4978380;57;1138938;-74
2023/06/25 07:06:58;;;;;;;5.40;3.92;;;;;;;20.35;92.25;101122.63;4931270;57;1138919;-82
2023/06/25 07:12:03;;;;;;;6.15;3.80;;;;;;;20.51;91.23;101119.62;4931326;57;1138765;-79
2023/06/25 07:17:09;;;;;;;5.22;3.20;;;;;;;20.62;90.32;101115.27;4952676;57;1138931;-80
2023/06/25 07:22:16;;;;;;;4.08;3.75;;;;;;;20.78;88.94;101103.12;4949918;56;1138839;-76
2023/06/25 07:27:22;;;;;;;4.33;3.05;;;;;;;20.88;89.57;101109.17;4938222;56;1138734;-79
2023/06/25 07:32:28;;;;;;;3.30;2.84;;;;;;;21.02;87.49;101095.52;4954948;58;1138995;-77
2023/06/25 07:37:37;;;;;;;4.15;3.20;;;;;;;21.16;86.13;101104.21;4991832;55;1138961;-79
2023/06/25 07:42:42;;;;;;;4.15;3.77;;;;;;;21.26;86.11;101106.72;5102273;55;1138947;-74
2023/06/25 07:47:48;;;;;;;5.35;3.37;;;;;;;21.40;84.76;101100.61;5096496;55;1139045;-77
2023/06/25 07:52:54;;;;;;;4.70;3.40;;;;;;;21.54;84.76;101107.13;5131095;55;1138896;-73
2023/06/25 07:57:59;;;;;;;6.77;3.60;;;;;;;21.62;83.05;101101.18;5037924;56;1138927;-77
2023/06/25 08:03:05;;;;;;;3.60;3.10;;;;;;;21.77;83.81;101099.91;5096595;55;1138641;-76
2023/06/25 08:08:11;;;;;;;4.15;3.15;;;;;;;21.95;81.09;101094.25;5137626;56;1138906;-74
2023/06/25 08:13:16;;;;;;;4.17;2.85;;;;;;;22.10;81.41;101091.14;5095787;54;1139084;-78
2023/06/25 08:18:22;;;;;;;3.27;3.08;;;;;;;22.27;80.68;101093.20;5199119;54;1139127;-74
2023/06/25 08:23:27;;;;;;;3.30;3.00;;;;;;;22.35;77.58;101087.73;5172428;55;1138827;-79
2023/06/25 08:28:33;;;;;;;7.78;3.83;;;;;;;22.52;78.86;101083.88;5041067;56;1138697;-77
2023/06/25 08:33:40;;;;;;;3.77;3.20;;;;;;;22.64;78.94;101090.48;5093383;55;1138859;-74
2023/06/25 08:38:45;;;;;;;3.77;3.47;;;;;;;22.85;77.88;101074.97;5140214;55;1138899;-77
2023/06/25 08:43:51;;;;;;;5.25;3.90;;;;;;;23.09;76.70;101075.19;5057878;56;1138727;-75
2023/06/25 08:48:57;;;;;;;5.20;3.62;;;;;;;23.09;74.47;101080.08;5070207;56;1139124;-75
2023/06/25 08:54:04;;;;;;;6.80;3.60;;;;;;;23.14;75.08;101076.31;5062017;55;1139040;-79
2023/06/25 08:59:10;;;;;;;5.78;3.58;;;;;;;23.24;75.03;101073.83;5141208;56;1138720;-73
2023/06/25 09:04:16;;;;;;;4.28;3.65;;;;;;;23.45;75.89;101067.98;5126079;55;1138598;-73
2023/06/25 09:09:21;;;;;;;7.80;4.28;;;;;;;23.46;73.22;101069.66;5102091;55;1138637;-79
2023/06/25 09:14:28;;;;;;;3.90;3.60;;;;;;;23.65;75.00;101070.12;5112318;56;1138406;-80
2023/06/25 09:19:33;;;;;;;3.85;3.22;;;;;;;23.66;73.36;101072.63;5086413;56;1138799;-73
2023/06/25 09:24:44;;;;;;;5.70;3.20;;;;;;;23.75;74.60;101069.28;5148275;55;1138990;-74
2023/06/25 09:29:50;;;;;;;3.50;3.20;;;;;;;24.00;69.49;101073.78;5189361;55;1138895;-70
2023/06/25 09:34:56;;;;;;;6.92;3.45;;;;;;;24.06;71.83;101062.22;5158824;55;1138780;-68
2023/06/25 09:40:02;;;;;;;3.40;3.10;;;;;;;24.07;68.97;101061.19;5108907;56;1138786;-80
2023/06/25 09:45:10;;;;;;;7.05;3.65;;;;;;;24.09;71.39;101056.43;5096326;56;1138794;-74
2023/06/25 09:50:31;;;;;;;2.55;2.33;;;;;;;24.29;72.80;101055.30;5101836;56;1138737;-72
2023/06/25 09:55:38;;;;;;;3.12;2.90;;;;;;;24.36;70.41;101058.36;5049886;56;1138688;-73
2023/06/25 10:00:45;;;;;;;3.72;3.42;;;;;;;24.32;68.00;101055.72;5031536;56;1138824;-76
2023/06/25 10:05:52;;;;;;;3.22;2.58;;;;;;;24.55;72.37;101037.91;5051334;56;1139047;-79
2023/06/25 10:11:03;;;;;;;3.37;3.05;;;;;;;24.98;74.06;101030.49;5094812;56;1138793;-78
2023/06/25 10:16:09;;;;;;;2.67;2.47;;;;;;;25.14;67.73;101034.22;5083213;56;1138908;-77
2023/06/25 10:21:25;;;;;;;3.65;3.10;;;;;;;25.26;70.28;101033.63;5102697;57;1138792;-79
2023/06/25 10:26:33;;;;;;;7.35;3.05;;;;;;;25.23;65.56;101030.80;5106844;55;1139016;-71
2023/06/25 10:31:44;;;;;;;5.10;3.20;;;;;;;24.81;66.53;101027.77;5155867;55;1138938;-74
2023/06/25 10:36:51;;;;;;;5.70;3.40;;;;;;;24.90;69.51;101017.91;5122994;56;1138975;-73
2023/06/25 10:41:57;;;;;;;3.10;2.90;;;;;;;25.11;70.39;101013.47;5093304;55;1138835;-75
2023/06/25 10:47:10;;;;;;;4.60;4.20;;;;;;;25.56;71.64;101013.30;5100551;55;1138884;-78
2023/06/25 10:52:16;;;;;;;7.37;5.87;;;;;;;25.43;66.45;101022.75;5094722;56;1138967;-75
2023/06/25 10:57:21;;;;;;;4.03;3.60;;;;;;;25.18;67.34;101017.89;5033197;55;1138903;-69
2023/06/25 11:02:27;;;;;;;3.33;3.02;;;;;;;25.42;67.65;101009.73;5066471;55;1138911;-70
2023/06/25 11:07:33;;;;;;;3.75;3.10;;;;;;;25.73;68.29;101003.79;5083121;56;1138947;-70
2023/06/25 11:12:39;;;;;;;6.12;2.95;;;;;;;25.64;66.38;100998.78;5088436;56;1138834;-73
2023/06/25 11:17:52;;;;;;;2.85;2.60;;;;;;;25.66;68.34;100989.93;5099952;55;1138816;-74
2023/06/25 11:23:04;;;;;;;11.63;3.20;;;;;;;26.05;66.74;100987.23;5063732;56;1139215;-73
2023/06/25 11:28:15;;;;;;;4.83;3.25;;;;;;;26.14;65.67;100979.71;5108937;55;1140738;-78
2023/06/25 11:33:21;;;;;;;3.12;2.83;;;;;;;25.82;64.66;100977.31;5098412;55;1139072;-75
2023/06/25 11:38:30;;;;;;;2.77;2.52;;;;;;;26.01;66.94;100960.22;5099036;55;1139115;-71
2023/06/25 11:43:36;;;;;;;8.90;3.70;;;;;;;26.15;65.29;100956.98;5089216;55;1139025;-75
2023/06/25 11:48:48;;;;;;;2.85;2.65;;;;;;;26.10;63.60;100950.85;5017302;56;1138961;-76
2023/06/25 11:53:54;;;;;;;2.93;2.60;;;;;;;26.45;65.13;100954.66;4951144;57;1138794;-78
2023/06/25 11:58:59;;;;;;;4.00;3.02;;;;;;;26.54;64.16;100956.12;4941407;57;1139165;-75
2023/06/25 12:04:05;;;;;;;4.53;3.20;;;;;;;26.73;66.14;100947.62;4986869;57;1139107;-74
2023/06/25 12:09:11;;;;;;;7.20;2.65;;;;;;;27.16;65.11;100942.43;4972176;57;1138854;-73
2023/06/25 12:14:16;;;;;;;4.40;2.98;;;;;;;27.22;61.95;100940.19;5020261;57;1138617;-70
2023/06/25 12:19:22;;;;;;;3.35;3.15;;;;;;;26.79;60.01;100942.66;5042638;57;1138979;-72
2023/06/25 12:24:28;;;;;;;3.02;2.83;;;;;;;26.80;63.29;100928.05;5021611;57;1210191;-69
2023/06/25 12:29:33;;;;;;;3.33;3.12;;;;;;;27.11;63.97;100925.42;5028122;57;1139018;-78
2023/06/25 12:34:39;;;;;;;6.40;2.73;;;;;;;27.29;61.45;100920.63;5015602;57;1138936;-72
2023/06/25 12:39:45;;;;;;;3.15;2.70;;;;;;;27.43;61.34;100915.41;5049326;57;1138868;-78
2023/06/25 12:44:51;;;;;;;3.55;2.77;;;;;;;27.25;60.24;100906.64;5026770;57;1138728;-70
2023/06/25 12:49:56;;;;;;;3.70;2.67;;;;;;;27.21;59.33;100917.63;5053344;56;1138745;-77
2023/06/25 12:55:04;;;;;;;4.05;2.70;;;;;;;27.22;56.76;100909.78;5058759;56;1139008;-69
2023/06/25 13:00:10;;;;;;;2.85;2.65;;;;;;;27.41;55.33;100912.59;5039203;56;1138980;-75
2023/06/25 13:05:16;;;;;;;5.83;4.12;;;;;;;27.42;56.63;100902.88;5087424;56;1139126;-70
2023/06/25 13:10:22;;;;;;;2.67;2.50;;;;;;;27.42;58.10;100908.83;5067773;56;1138893;-76
2023/06/25 13:15:28;;;;;;;2.58;2.37;;;;;;;27.34;56.76;100905.03;5053319;56;1139105;-72
2023/06/25 13:20:33;;;;;;;2.83;2.62;;;;;;;27.25;58.51;100896.30;5037502;56;1139136;-77
2023/06/25 13:25:41;;;;;;;4.03;3.63;;;;;;;27.55;57.29;100893.78;5039199;56;1139137;-71
2023/06/25 13:30:46;;;;;;;3.92;3.12;;;;;;;27.78;56.48;100888.61;5034824;57;1138924;-74
2023/06/25 13:35:52;;;;;;;3.45;2.80;;;;;;;27.97;52.57;100881.30;5071072;56;1138816;-73
2023/06/25 13:40:57;;;;;;;3.15;2.90;;;;;;;27.81;53.49;100879.98;5058308;56;1138702;-79
2023/06/25 13:46:03;;;;;;;3.50;3.17;;;;;;;27.83;55.91;100873.81;5066892;56;1138947;-74
2023/06/25 13:51:09;;;;;;;7.20;5.20;;;;;;;27.67;54.02;100874.37;5045976;56;1139198;-77
2023/06/25 13:56:15;;;;;;;4.35;3.95;;;;;;;27.42;55.40;100867.55;5042742;56;1138950;-76
2023/06/25 14:01:21;;;;;;;6.90;3.05;;;;;;;27.59;57.93;100865.16;5092869;55;1139013;-76
2023/06/25 14:06:26;;;;;;;5.55;2.42;;;;;;;27.82;55.91;100858.55;5072229;56;1138766;-79
2023/06/25 14:11:32;;;;;;;4.12;2.95;;;;;;;27.96;55.11;100848.37;5095732;55;1139280;-72
2023/06/25 14:16:38;;;;;;;4.22;3.77;;;;;;;27.82;53.46;100853.11;5099443;55;1138867;-80
2023/06/25 14:21:45;;;;;;;2.70;2.60;;;;;;;27.71;54.24;100847.59;5103610;56;1139100;-73
2023/06/25 14:26:51;;;;;;;4.37;3.30;;;;;;;27.87;54.06;100839.69;5092152;55;1139341;-75
2023/06/25 14:31:57;;;;;;;3.63;3.17;;;;;;;27.76;53.54;100836.89;5125697;55;1139112;-74
2023/06/25 14:37:02;;;;;;;3.57;3.13;;;;;;;27.57;53.45;100840.08;5117103;55;1139384;-75
2023/06/25 14:42:08;;;;;;;3.47;3.27;;;;;;;27.49;54.03;100838.46;5086374;56;1138793;-77
2023/06/25 14:47:14;;;;;;;3.00;2.65;;;;;;;27.60;54.97;100832.85;4946247;57;1138974;-69
2023/06/25 14:52:19;;;;;;;5.50;3.75;;;;;;;27.73;54.17;100831.36;5101947;55;1139482;-71
2023/06/25 14:57:25;;;;;;;3.20;2.95;;;;;;;27.94;54.65;100828.76;5058723;55;1139003;-74
2023/06/25 15:02:30;;;;;;;3.15;2.92;;;;;;;28.13;52.36;100823.61;5066808;55;1138862;-66
2023/06/25 15:07:36;;;;;;;2.80;2.60;;;;;;;28.21;51.64;100820.63;5087928;55;1138896;-75
2023/06/25 15:12:41;;;;;;;3.12;2.92;;;;;;;28.37;52.24;100810.19;5058303;56;1138886;-75
2023/06/25 15:17:48;;;;;;;3.05;2.83;;;;;;;28.43;51.75;100806.53;5074810;55;1138794;-70
2023/06/25 15:22:54;;;;;;;8.58;3.40;;;;;;;28.45;47.82;100800.34;5104164;55;1139111;-74
2023/06/25 15:28:01;;;;;;;3.35;3.10;;;;;;;28.49;49.79;100802.91;5111984;55;1139042;-72
2023/06/25 15:33:06;;;;;;;6.90;2.83;;;;;;;28.58;50.60;100789.27;5087165;55;1138809;-79
2023/06/25 15:38:13;;;;;;;3.33;3.02;;;;;;;28.67;50.18;100790.09;5090934;55;1139119;-76
2023/06/25 15:43:19;;;;;;;6.95;3.22;;;;;;;28.56;49.37;100784.09;5077959;56;1138995;-78
2023/06/25 15:48:24;;;;;;;3.75;3.37;;;;;;;28.43;50.70;100785.60;5098652;55;1139087;-78
2023/06/25 15:53:30;;;;;;;3.60;2.92;;;;;;;28.39;50.28;100774.90;5042567;55;1138943;-82
2023/06/25 15:58:36;;;;;;;3.63;2.97;;;;;;;28.26;49.69;100769.08;5076340;55;1139020;-71
2023/06/25 16:03:41;;;;;;;3.83;3.27;;;;;;;28.19;51.17;100768.87;5131679;55;1139108;-77
2023/06/25 16:08:47;;;;;;;5.28;2.98;;;;;;;28.15;52.36;100764.38;5077236;55;1139208;-80
2023/06/25 16:13:53;;;;;;;3.50;3.20;;;;;;;28.11;51.71;100757.73;5116604;55;1139067;-76
2023/06/25 16:18:59;;;;;;;3.67;3.27;;;;;;;28.17;51.44;100760.91;5078625;56;1139206;-72
2023/06/25 16:24:05;;;;;;;3.40;3.08;;;;;;;28.20;49.54;100754.22;5058925;56;1138855;-69
2023/06/25 16:29:11;;;;;;;4.50;3.00;;;;;;;28.02;50.62;100753.67;5044690;56;1138872;-73
2023/06/25 16:34:16;;;;;;;3.35;3.05;;;;;;;27.75;49.16;100755.87;5130052;56;1138656;-72
2023/06/25 16:39:22;;;;;;;4.05;2.80;;;;;;;27.45;49.53;100753.02;5161935;55;1139102;-81
2023/06/25 16:44:27;;;;;;;3.50;3.20;;;;;;;27.30;50.87;100753.36;5298960;55;1139150;-74
2023/06/25 16:49:36;;;;;;;3.83;3.20;;;;;;;27.17;52.08;100748.05;5293069;55;1139195;-76
2023/06/25 16:54:41;;;;;;;3.40;2.95;;;;;;;27.13;52.62;100748.70;5252003;55;1139012;-75
2023/06/25 16:59:47;;;;;;;4.58;3.25;;;;;;;27.08;52.22;100753.44;5090482;56;1138787;-72
2023/06/25 17:04:52;;;;;;;3.25;2.95;;;;;;;27.00;52.78;100749.66;5078828;55;1139042;-74
2023/06/25 17:09:58;;;;;;;6.78;3.45;;;;;;;26.90;53.42;100750.62;5161292;55;1138691;-74
2023/06/25 17:15:04;;;;;;;3.47;3.17;;;;;;;26.84;54.73;100752.88;5197728;55;1138873;-70
2023/06/25 17:20:10;;;;;;;7.37;4.00;;;;;;;26.76;55.42;100751.77;5197817;55;1138860;-80
2023/06/25 17:25:16;;;;;;;6.87;3.22;;;;;;;26.72;55.21;100754.64;5218165;55;1138791;-76
2023/06/25 17:30:21;;;;;;;7.40;4.67;;;;;;;26.76;56.65;100753.13;5192097;55;1138745;-78
2023/06/25 17:35:28;;;;;;;15.43;5.28;;;;;;;26.81;57.96;100745.16;5160823;55;1138942;-71
2023/06/25 17:40:34;;;;;;;10.38;3.70;;;;;;;26.85;58.07;100752.66;5068324;55;1141432;-74
2023/06/25 17:45:40;;;;;;;12.80;4.07;;;;;;;26.85;57.27;100750.47;5136198;55;1140860;-72
2023/06/25 17:50:45;;;;;;;7.83;3.95;;;;;;;26.87;58.54;100749.20;5103194;56;1141003;-78
2023/06/25 17:55:51;;;;;;;12.28;4.17;;;;;;;26.84;58.33;100748.80;5097773;55;1139033;-71
2023/06/25 18:00:57;;;;;;;5.67;4.40;;;;;;;26.79;57.91;100749.45;5132635;55;1141089;-79
2023/06/25 18:06:02;;;;;;;10.13;7.83;;;;;;;26.84;58.71;100746.09;4994050;56;1139096;-80
2023/06/25 18:11:24;;;;;;;15.53;8.50;;;;;;;26.89;58.64;100745.72;4895953;57;1141083;-71
2023/06/25 18:16:30;;;;;;;12.18;6.80;;;;;;;26.96;58.94;100743.83;4957465;58;1140977;-72
2023/06/25 18:21:36;;;;;;;10.93;6.53;;;;;;;26.67;59.70;100744.95;4981608;58;1140967;-71
2023/06/25 18:26:41;;;;;;;11.77;9.13;;;;;;;26.44;60.92;100745.49;4962827;57;1141016;-74
2023/06/25 18:31:47;;;;;;;11.93;9.25;;;;;;;26.37;61.15;100750.14;4972548;57;1141267;-77
2023/06/25 18:36:53;;;;;;;12.43;8.00;;;;;;;26.38;62.57;100745.02;4984086;57;1141094;-72
2023/06/25 18:41:58;;;;;;;14.43;7.33;;;;;;;26.42;65.06;100744.38;4974189;57;1140882;-75
2023/06/25 18:47:04;;;;;;;21.50;5.03;;;;;;;26.36;64.47;100753.90;4992233;57;1141241;-78
2023/06/25 18:52:10;;;;;;;17.45;5.00;;;;;;;26.23;64.33;100754.77;5071952;56;1140690;-78
2023/06/25 18:57:15;;;;;;;12.70;4.95;;;;;;;26.18;65.12;100745.91;5088351;56;1141000;-78
2023/06/25 19:02:21;;;;;;;11.33;5.08;;;;;;;26.17;65.15;100742.89;4982694;57;1141045;-77
2023/06/25 19:07:27;;;;;;;8.73;7.20;;;;;;;26.17;66.05;100742.06;5043848;57;1140893;-76
2023/06/25 19:12:33;;;;;;;17.75;7.65;;;;;;;26.10;66.21;100740.75;4997838;57;1138847;-73
2023/06/25 19:17:39;;;;;;;16.57;7.97;;;;;;;26.03;66.70;100746.70;5021861;56;1140991;-77
2023/06/25 19:22:44;;;;;;;16.85;7.58;;;;;;;25.84;67.01;100745.72;5124608;56;1140746;-73
2023/06/25 19:27:51;;;;;;;14.38;7.85;;;;;;;25.69;68.98;100745.66;4995881;57;1141096;-75
2023/06/25 19:32:57;;;;;;;14.63;8.25;;;;;;;25.47;68.95;100750.48;4945541;57;1140769;-74
2023/06/25 19:38:03;;;;;;;10.93;6.92;;;;;;;25.12;68.89;100757.48;5009394;57;1140941;-77
2023/06/25 19:43:08;;;;;;;9.08;7.95;;;;;;;24.97;69.43;100758.72;5032416;56;1141064;-74
2023/06/25 19:48:14;;;;;;;13.72;8.20;;;;;;;24.89;70.36;100764.62;5021058;57;1138747;-73
2023/06/25 19:53:19;;;;;;;17.90;9.75;;;;;;;24.78;71.34;100767.92;5073694;56;1141011;-77
2023/06/25 19:58:25;;;;;;;17.62;9.95;;;;;;;24.67;72.31;100767.70;5002075;56;1140985;-73
2023/06/25 20:03:31;;;;;;;24.90;11.18;;;;;;;24.52;73.17;100773.28;5022000;57;1141010;-77
2023/06/25 20:08:37;;;;;;;19.82;11.40;;;;;;;24.43;74.33;100767.23;5061846;57;1143122;-67
2023/06/25 20:13:42;;;;;;;16.32;10.23;;;;;;;24.19;74.24;100771.77;5045963;57;1143379;-74
2023/06/25 20:18:48;;;;;;;15.10;10.55;;;;;;;23.92;75.01;100776.22;5032854;57;1143024;-70
2023/06/25 20:23:54;;;;;;;20.90;11.50;;;;;;;23.84;76.13;100773.67;5056590;57;1143057;-67
2023/06/25 20:28:59;;;;;;;19.85;10.78;;;;;;;23.89;77.12;100775.27;4975021;57;1142786;-71
2023/06/25 20:34:05;;;;;;;26.80;11.10;;;;;;;23.95;77.71;100777.19;5024321;57;1142766;-79
2023/06/25 20:39:11;;;;;;;23.38;10.08;;;;;;;23.99;78.11;100774.38;4956854;57;1142736;-75
2023/06/25 20:44:16;;;;;;;58.73;11.93;;;;;;;23.96;77.84;100776.16;4933097;58;1143130;-76
2023/06/25 20:49:25;;;;;;;42.62;12.60;;;;;;;23.88;77.95;100775.46;4862263;58;1143068;-69
2023/06/25 20:54:30;;;;;;;38.30;14.15;;;;;;;23.76;77.84;100777.38;4987498;57;1143075;-71
2023/06/25 20:59:36;;;;;;;65.87;18.93;;;;;;;23.62;78.28;100775.63;5012132;57;1143063;-72
2023/06/25 21:04:41;;;;;;;59.57;15.60;;;;;;;23.47;78.75;100774.36;4950229;58;1143091;-76
2023/06/25 21:09:47;;;;;;;32.17;14.00;;;;;;;23.44;79.12;100769.86;4986538;58;1143356;-72
2023/06/25 21:14:53;;;;;;;16.42;11.08;;;;;;;22.99;78.38;100782.77;4986690;58;1142761;-77
2023/06/25 21:19:59;;;;;;;18.45;10.98;;;;;;;22.42;79.40;100786.81;4985789;58;1142829;-75
2023/06/25 21:25:05;;;;;;;23.60;12.05;;;;;;;22.16;81.19;100781.08;4986618;58;1142850;-73
2023/06/25 21:30:12;;;;;;;35.17;18.40;;;;;;;22.31;83.37;100781.38;5034911;56;1143210;-75
2023/06/25 21:35:18;;;;;;;25.86;14.32;;;;;;;22.28;83.23;100784.98;5152137;56;1143116;-75
2023/06/25 21:40:24;;;;;;;20.55;12.70;;;;;;;22.16;83.60;100784.61;5164360;55;1142902;-77
2023/06/25 21:45:30;;;;;;;15.20;11.70;;;;;;;22.09;84.15;100789.09;5211166;56;1143139;-74
2023/06/25 21:50:36;;;;;;;34.80;16.27;;;;;;;22.10;85.67;100790.25;5116094;56;1142854;-73
2023/06/25 21:55:41;;;;;;;45.38;19.17;;;;;;;22.22;86.50;100783.87;5119618;56;1142881;-74
2023/06/25 22:00:47;;;;;;;58.15;29.92;;;;;;;22.35;86.19;100784.53;5133083;55;1142888;-75
2023/06/25 22:05:53;;;;;;;41.30;18.67;;;;;;;22.38;85.55;100789.55;5099766;56;1142903;-79
2023/06/25 22:10:59;;;;;;;31.80;15.70;;;;;;;22.39;85.92;100787.19;5122973;56;1142802;-72
2023/06/25 22:16:05;;;;;;;31.60;15.30;;;;;;;22.36;85.10;100785.70;5092677;56;1143119;-75
2023/06/25 22:21:11;;;;;;;23.40;12.78;;;;;;;22.13;84.25;100792.25;5152057;56;1142943;-72
2023/06/25 22:26:17;;;;;;;24.82;11.93;;;;;;;21.82;84.55;100791.07;5156806;56;1143103;-71
2023/06/25 22:31:22;;;;;;;20.55;11.97;;;;;;;21.53;84.66;100791.89;5103880;55;1143082;-70
2023/06/25 22:36:28;;;;;;;18.25;11.50;;;;;;;21.26;85.58;100791.95;5177234;55;1142991;-70
2023/06/25 22:41:34;;;;;;;22.75;11.08;;;;;;;21.08;86.47;100779.32;5182608;55;1143041;-76
2023/06/25 22:46:39;;;;;;;24.47;13.20;;;;;;;21.38;89.33;100782.45;5182223;55;1143068;-77
2023/06/25 22:51:48;;;;;;;24.57;13.88;;;;;;;21.38;89.33;100782.45;5174141;55;1142883;-76
2023/06/25 22:56:52;;;;;;;22.40;14.28;;;;;;;21.39;88.06;100781.39;5150079;55;1142515;-79
2023/06/25 23:01:58;;;;;;;23.85;13.72;;;;;;;21.22;87.59;100780.73;5164422;55;1142559;-73